sensor_id;sensor_type;location;lat;lon;timestamp;pressure;altitude;pressure_sealevel;temperature;humidity
42297;BME280;28985;47.456;19.016;2022-09-01T00:00:00;100334.13;;;19.26;68.19
42297;BME280;28985;47.456;19.016;2022-09-01T00:02:29;100330.41;;;19.27;68.09
42297;BME280;28985;47.456;19.016;2022-09-01T00:04:56;100345.63;;;18.99;70.20
42297;BME280;28985;47.456;19.016;2022-09-01T00:07:25;100351.44;;;18.74;69.17
42297;BME280;28985;47.456;19.016;2022-09-01T00:09:52;100358.34;;;18.55;70.04
42297;BME280;28985;47.456;19.016;2022-09-01T00:12:19;100355.94;;;18.82;71.57
42297;BME280;28985;47.456;19.016;2022-09-01T00:14:48;100365.69;;;19.07;70.20
42297;BME280;28985;47.456;19.016;2022-09-01T00:17:14;100360.72;;;19.17;69.55
42297;BME280;28985;47.456;19.016;2022-09-01T00:19:41;100355.00;;;19.34;67.64
42297;BME280;28985;47.456;19.016;2022-09-01T00:22:07;100375.34;;;19.09;68.86
42297;BME280;28985;47.456;19.016;2022-09-01T00:24:34;100375.16;;;19.11;67.56
42297;BME280;28985;47.456;19.016;2022-09-01T00:27:02;100376.53;;;19.22;69.71
42297;BME280;28985;47.456;19.016;2022-09-01T00:29:28;100379.78;;;19.10;67.11
42297;BME280;28985;47.456;19.016;2022-09-01T00:31:55;100385.94;;;19.19;69.15
42297;BME280;28985;47.456;19.016;2022-09-01T00:34:22;100387.00;;;19.18;67.99
42297;BME280;28985;47.456;19.016;2022-09-01T00:36:49;100388.34;;;19.07;69.36
42297;BME280;28985;47.456;19.016;2022-09-01T00:39:15;100387.06;;;19.03;69.77
42297;BME280;28985;47.456;19.016;2022-09-01T00:41:42;100386.69;;;18.76;69.74
42297;BME280;28985;47.456;19.016;2022-09-01T00:44:14;100394.63;;;18.56;68.77
42297;BME280;28985;47.456;19.016;2022-09-01T00:46:44;100391.75;;;18.27;71.92
42297;BME280;28985;47.456;19.016;2022-09-01T00:49:30;100390.56;;;17.91;73.86
42297;BME280;28985;47.456;19.016;2022-09-01T00:52:10;100395.31;;;17.74;78.61
42297;BME280;28985;47.456;19.016;2022-09-01T00:54:43;100399.25;;;17.71;77.87
42297;BME280;28985;47.456;19.016;2022-09-01T00:57:10;100396.06;;;17.68;78.27
42297;BME280;28985;47.456;19.016;2022-09-01T00:59:49;100401.47;;;17.53;80.44
42297;BME280;28985;47.456;19.016;2022-09-01T01:02:18;100398.84;;;17.60;78.25
42297;BME280;28985;47.456;19.016;2022-09-01T01:04:45;100404.09;;;17.61;82.47
42297;BME280;28985;47.456;19.016;2022-09-01T01:07:12;100393.41;;;17.60;78.33
42297;BME280;28985;47.456;19.016;2022-09-01T01:09:41;100403.16;;;17.54;79.90
42297;BME280;28985;47.456;19.016;2022-09-01T01:12:10;100401.81;;;17.50;78.19
42297;BME280;28985;47.456;19.016;2022-09-01T01:14:48;100404.97;;;17.38;80.63
42297;BME280;28985;47.456;19.016;2022-09-01T01:17:17;100406.72;;;17.31;79.60
42297;BME280;28985;47.456;19.016;2022-09-01T01:19:49;100413.25;;;17.22;80.30
42297;BME280;28985;47.456;19.016;2022-09-01T01:25:50;100403.81;;;17.09;80.84
42297;BME280;28985;47.456;19.016;2022-09-01T01:28:25;100401.78;;;17.11;84.30
42297;BME280;28985;47.456;19.016;2022-09-01T01:30:58;100400.19;;;17.17;81.37
42297;BME280;28985;47.456;19.016;2022-09-01T01:33:33;100398.34;;;17.17;85.36
42297;BME280;28985;47.456;19.016;2022-09-01T01:36:02;100394.03;;;17.23;85.97
42297;BME280;28985;47.456;19.016;2022-09-01T01:38:33;100407.28;;;17.26;82.84
42297;BME280;28985;47.456;19.016;2022-09-01T01:41:01;100395.38;;;17.27;84.12
42297;BME280;28985;47.456;19.016;2022-09-01T01:43:28;100401.53;;;17.21;82.43
42297;BME280;28985;47.456;19.016;2022-09-01T01:45:56;100393.06;;;17.16;84.10
42297;BME280;28985;47.456;19.016;2022-09-01T01:48:28;100397.84;;;17.14;84.77
42297;BME280;28985;47.456;19.016;2022-09-01T01:51:00;100401.78;;;17.11;84.25
42297;BME280;28985;47.456;19.016;2022-09-01T01:53:27;100398.06;;;17.04;85.45
42297;BME280;28985;47.456;19.016;2022-09-01T01:55:54;100398.09;;;16.96;87.96
42297;BME280;28985;47.456;19.016;2022-09-01T01:58:22;100393.13;;;16.99;88.08
42297;BME280;28985;47.456;19.016;2022-09-01T02:00:51;100379.53;;;16.99;89.13
42297;BME280;28985;47.456;19.016;2022-09-01T02:03:20;100387.75;;;16.91;90.36
42297;BME280;28985;47.456;19.016;2022-09-01T02:05:50;100373.38;;;16.82;91.82
42297;BME280;28985;47.456;19.016;2022-09-01T02:08:18;100363.47;;;16.89;89.58
42297;BME280;28985;47.456;19.016;2022-09-01T02:10:49;100364.50;;;16.88;88.73
42297;BME280;28985;47.456;19.016;2022-09-01T02:13:18;100360.59;;;16.83;89.07
42297;BME280;28985;47.456;19.016;2022-09-01T02:15:51;100358.38;;;16.86;89.97
42297;BME280;28985;47.456;19.016;2022-09-01T02:18:22;100355.06;;;16.76;88.48
42297;BME280;28985;47.456;19.016;2022-09-01T02:20:51;100356.44;;;17.03;88.32
42297;BME280;28985;47.456;19.016;2022-09-01T02:23:19;100355.22;;;17.06;85.86
42297;BME280;28985;47.456;19.016;2022-09-01T02:25:51;100352.88;;;17.26;89.58
42297;BME280;28985;47.456;19.016;2022-09-01T02:28:40;100352.63;;;17.36;84.73
42297;BME280;28985;47.456;19.016;2022-09-01T02:31:09;100348.59;;;17.09;84.61
42297;BME280;28985;47.456;19.016;2022-09-01T02:33:38;100350.81;;;17.05;83.38
42297;BME280;28985;47.456;19.016;2022-09-01T02:36:13;100353.78;;;16.87;85.27
42297;BME280;28985;47.456;19.016;2022-09-01T02:38:43;100346.53;;;16.79;86.90
42297;BME280;28985;47.456;19.016;2022-09-01T02:41:18;100348.69;;;16.84;85.61
42297;BME280;28985;47.456;19.016;2022-09-01T02:43:48;100345.88;;;16.77;85.67
42297;BME280;28985;47.456;19.016;2022-09-01T02:46:15;100340.84;;;16.66;86.52
42297;BME280;28985;47.456;19.016;2022-09-01T02:48:43;100338.16;;;16.57;86.79
42297;BME280;28985;47.456;19.016;2022-09-01T02:51:15;100348.34;;;16.55;85.06
42297;BME280;28985;47.456;19.016;2022-09-01T02:53:43;100340.38;;;16.54;85.40
42297;BME280;28985;47.456;19.016;2022-09-01T02:56:15;100347.88;;;16.51;86.28
42297;BME280;28985;47.456;19.016;2022-09-01T02:58:44;100335.97;;;16.53;86.47
42297;BME280;28985;47.456;19.016;2022-09-01T03:03:52;100333.13;;;16.46;85.75
42297;BME280;28985;47.456;19.016;2022-09-01T03:06:20;100328.69;;;16.53;86.89
42297;BME280;28985;47.456;19.016;2022-09-01T03:08:50;100330.59;;;16.44;84.77
42297;BME280;28985;47.456;19.016;2022-09-01T03:11:18;100331.09;;;16.40;87.99
42297;BME280;28985;47.456;19.016;2022-09-01T03:13:44;100320.22;;;16.40;87.00
42297;BME280;28985;47.456;19.016;2022-09-01T03:16:11;100321.56;;;16.44;86.43
42297;BME280;28985;47.456;19.016;2022-09-01T03:18:38;100320.81;;;16.27;84.93
42297;BME280;28985;47.456;19.016;2022-09-01T03:21:06;100314.22;;;16.21;85.82
42297;BME280;28985;47.456;19.016;2022-09-01T03:23:34;100313.59;;;16.10;87.01
42297;BME280;28985;47.456;19.016;2022-09-01T03:26:03;100324.75;;;16.16;85.64
42297;BME280;28985;47.456;19.016;2022-09-01T03:28:30;100329.19;;;16.17;85.81
42297;BME280;28985;47.456;19.016;2022-09-01T03:30:57;100336.63;;;16.23;86.52
42297;BME280;28985;47.456;19.016;2022-09-01T03:33:26;100347.00;;;16.19;86.09
42297;BME280;28985;47.456;19.016;2022-09-01T03:35:53;100351.03;;;16.23;86.04
42297;BME280;28985;47.456;19.016;2022-09-01T03:38:21;100351.91;;;16.24;86.29
42297;BME280;28985;47.456;19.016;2022-09-01T03:40:53;100354.06;;;16.69;89.73
42297;BME280;28985;47.456;19.016;2022-09-01T03:43:24;100353.00;;;16.78;81.19
42297;BME280;28985;47.456;19.016;2022-09-01T03:46:01;100350.41;;;16.85;83.55
42297;BME280;28985;47.456;19.016;2022-09-01T03:48:30;100346.78;;;17.39;83.96
42297;BME280;28985;47.456;19.016;2022-09-01T03:50:58;100338.53;;;17.33;77.71
42297;BME280;28985;47.456;19.016;2022-09-01T03:53:30;100333.00;;;17.02;77.76
42297;BME280;28985;47.456;19.016;2022-09-01T03:55:57;100324.22;;;16.84;78.11
42297;BME280;28985;47.456;19.016;2022-09-01T03:58:25;100317.97;;;16.51;79.17
42297;BME280;28985;47.456;19.016;2022-09-01T04:00:55;100324.34;;;16.35;81.33
42297;BME280;28985;47.456;19.016;2022-09-01T04:03:24;100320.84;;;16.18;82.66
42297;BME280;28985;47.456;19.016;2022-09-01T04:05:54;100331.56;;;16.12;84.12
42297;BME280;28985;47.456;19.016;2022-09-01T04:08:22;100324.63;;;16.01;83.13
42297;BME280;28985;47.456;19.016;2022-09-01T04:11:01;100319.41;;;15.82;85.54
42297;BME280;28985;47.456;19.016;2022-09-01T04:13:37;100334.00;;;15.73;86.01
42297;BME280;28985;47.456;19.016;2022-09-01T04:16:05;100331.66;;;15.70;85.09
42297;BME280;28985;47.456;19.016;2022-09-01T04:18:36;100330.78;;;15.86;86.62
42297;BME280;28985;47.456;19.016;2022-09-01T04:21:05;100337.00;;;16.03;87.13
42297;BME280;28985;47.456;19.016;2022-09-01T04:23:34;100339.06;;;16.01;86.42
42297;BME280;28985;47.456;19.016;2022-09-01T04:28:39;100323.28;;;15.88;87.97
42297;BME280;28985;47.456;19.016;2022-09-01T04:31:09;100317.88;;;15.80;88.98
42297;BME280;28985;47.456;19.016;2022-09-01T04:33:46;100314.47;;;15.86;90.03
42297;BME280;28985;47.456;19.016;2022-09-01T04:36:19;100321.09;;;15.83;89.29
42297;BME280;28985;47.456;19.016;2022-09-01T04:38:50;100326.03;;;15.80;89.37
42297;BME280;28985;47.456;19.016;2022-09-01T04:41:20;100331.09;;;15.91;90.74
42297;BME280;28985;47.456;19.016;2022-09-01T04:43:48;100335.84;;;15.89;89.08
42297;BME280;28985;47.456;19.016;2022-09-01T04:46:18;100336.38;;;15.93;88.98
42297;BME280;28985;47.456;19.016;2022-09-01T04:48:46;100335.53;;;15.84;89.22
42297;BME280;28985;47.456;19.016;2022-09-01T04:51:14;100334.19;;;15.80;88.70
42297;BME280;28985;47.456;19.016;2022-09-01T04:53:41;100334.88;;;15.74;90.49
42297;BME280;28985;47.456;19.016;2022-09-01T04:56:18;100335.72;;;15.66;90.69
42297;BME280;28985;47.456;19.016;2022-09-01T04:58:46;100333.19;;;15.64;90.32
42297;BME280;28985;47.456;19.016;2022-09-01T05:01:19;100328.28;;;15.60;91.26
42297;BME280;28985;47.456;19.016;2022-09-01T05:03:47;100335.75;;;15.49;92.10
42297;BME280;28985;47.456;19.016;2022-09-01T05:06:22;100334.91;;;15.49;93.39
42297;BME280;28985;47.456;19.016;2022-09-01T05:08:49;100337.25;;;15.52;91.86
42297;BME280;28985;47.456;19.016;2022-09-01T05:11:17;100340.66;;;15.54;91.28
42297;BME280;28985;47.456;19.016;2022-09-01T05:13:46;100347.09;;;15.53;91.52
42297;BME280;28985;47.456;19.016;2022-09-01T05:16:18;100347.63;;;15.48;91.94
42297;BME280;28985;47.456;19.016;2022-09-01T05:18:51;100351.50;;;15.62;92.45
42297;BME280;28985;47.456;19.016;2022-09-01T05:21:23;100358.44;;;15.73;91.66
42297;BME280;28985;47.456;19.016;2022-09-01T05:23:52;100361.31;;;15.96;93.03
42297;BME280;28985;47.456;19.016;2022-09-01T05:26:24;100360.09;;;16.47;92.28
42297;BME280;28985;47.456;19.016;2022-09-01T05:28:54;100344.28;;;16.59;87.25
42297;BME280;28985;47.456;19.016;2022-09-01T05:31:22;100344.00;;;16.46;86.24
42297;BME280;28985;47.456;19.016;2022-09-01T05:33:49;100350.66;;;16.35;87.75
42297;BME280;28985;47.456;19.016;2022-09-01T05:36:19;100341.19;;;16.22;85.74
42297;BME280;28985;47.456;19.016;2022-09-01T05:38:47;100344.63;;;16.16;86.21
42297;BME280;28985;47.456;19.016;2022-09-01T05:41:16;100343.31;;;16.04;87.70
42297;BME280;28985;47.456;19.016;2022-09-01T05:43:46;100346.03;;;16.44;90.20
42297;BME280;28985;47.456;19.016;2022-09-01T05:46:17;100356.09;;;16.35;86.05
42297;BME280;28985;47.456;19.016;2022-09-01T05:48:44;100345.47;;;16.57;85.41
42297;BME280;28985;47.456;19.016;2022-09-01T05:51:16;100348.91;;;16.42;85.10
42297;BME280;28985;47.456;19.016;2022-09-01T05:54:05;100351.41;;;16.12;85.55
42297;BME280;28985;47.456;19.016;2022-09-01T05:56:35;100352.97;;;15.90;85.57
42297;BME280;28985;47.456;19.016;2022-09-01T05:59:09;100355.69;;;15.98;87.46
42297;BME280;28985;47.456;19.016;2022-09-01T06:01:53;100359.97;;;15.92;88.36
42297;BME280;28985;47.456;19.016;2022-09-01T06:04:21;100359.09;;;15.83;89.38
42297;BME280;28985;47.456;19.016;2022-09-01T06:06:50;100361.81;;;15.83;89.33
42297;BME280;28985;47.456;19.016;2022-09-01T06:09:39;100354.00;;;15.89;90.18
42297;BME280;28985;47.456;19.016;2022-09-01T06:12:08;100352.47;;;15.86;88.52
42297;BME280;28985;47.456;19.016;2022-09-01T06:14:44;100350.44;;;15.88;89.91
42297;BME280;28985;47.456;19.016;2022-09-01T06:17:11;100356.34;;;15.92;87.88
42297;BME280;28985;47.456;19.016;2022-09-01T06:19:42;100350.28;;;15.90;87.44
42297;BME280;28985;47.456;19.016;2022-09-01T06:22:09;100350.78;;;15.85;87.47
42297;BME280;28985;47.456;19.016;2022-09-01T06:24:37;100355.19;;;15.86;89.74
42297;BME280;28985;47.456;19.016;2022-09-01T06:27:06;100349.78;;;15.86;89.76
42297;BME280;28985;47.456;19.016;2022-09-01T06:29:36;100355.38;;;15.76;89.15
42297;BME280;28985;47.456;19.016;2022-09-01T06:32:06;100356.22;;;15.77;88.18
42297;BME280;28985;47.456;19.016;2022-09-01T06:34:39;100362.00;;;15.74;89.78
42297;BME280;28985;47.456;19.016;2022-09-01T06:37:11;100366.59;;;15.65;89.36
42297;BME280;28985;47.456;19.016;2022-09-01T06:39:41;100366.25;;;15.68;90.01
42297;BME280;28985;47.456;19.016;2022-09-01T06:42:09;100369.66;;;15.70;90.80
42297;BME280;28985;47.456;19.016;2022-09-01T06:44:39;100361.50;;;15.70;90.32
42297;BME280;28985;47.456;19.016;2022-09-01T06:47:06;100365.38;;;15.76;92.17
42297;BME280;28985;47.456;19.016;2022-09-01T06:49:34;100374.22;;;15.69;89.47
42297;BME280;28985;47.456;19.016;2022-09-01T06:52:03;100366.06;;;15.69;90.25
42297;BME280;28985;47.456;19.016;2022-09-01T06:54:30;100366.09;;;15.78;89.67
42297;BME280;28985;47.456;19.016;2022-09-01T06:57:00;100373.53;;;15.84;89.33
42297;BME280;28985;47.456;19.016;2022-09-01T06:59:49;100372.50;;;15.85;88.28
42297;BME280;28985;47.456;19.016;2022-09-01T07:02:19;100381.81;;;15.91;89.61
42297;BME280;28985;47.456;19.016;2022-09-01T07:04:52;100380.50;;;15.95;90.08
42297;BME280;28985;47.456;19.016;2022-09-01T07:07:19;100384.69;;;15.89;89.22
42297;BME280;28985;47.456;19.016;2022-09-01T07:10:08;100395.75;;;15.96;87.88
42297;BME280;28985;47.456;19.016;2022-09-01T07:12:51;100395.75;;;15.96;86.98
42297;BME280;28985;47.456;19.016;2022-09-01T07:15:39;100397.78;;;16.02;88.27
42297;BME280;28985;47.456;19.016;2022-09-01T07:18:26;100395.06;;;16.02;86.32
42297;BME280;28985;47.456;19.016;2022-09-01T07:20:54;100389.31;;;16.05;86.91
42297;BME280;28985;47.456;19.016;2022-09-01T07:23:32;100396.91;;;16.10;86.84
42297;BME280;28985;47.456;19.016;2022-09-01T07:26:19;100400.66;;;16.09;85.75
42297;BME280;28985;47.456;19.016;2022-09-01T07:28:52;100401.50;;;16.09;84.62
42297;BME280;28985;47.456;19.016;2022-09-01T07:31:29;100403.84;;;16.21;89.03
42297;BME280;28985;47.456;19.016;2022-09-01T07:34:17;100402.16;;;16.28;87.21
42297;BME280;28985;47.456;19.016;2022-09-01T07:37:04;100402.28;;;16.35;87.82
42297;BME280;28985;47.456;19.016;2022-09-01T07:39:51;100410.41;;;16.35;85.48
42297;BME280;28985;47.456;19.016;2022-09-01T07:42:19;100404.28;;;16.41;85.90
42297;BME280;28985;47.456;19.016;2022-09-01T07:45:07;100405.81;;;16.44;85.29
42297;BME280;28985;47.456;19.016;2022-09-01T07:47:54;100402.38;;;16.50;85.30
42297;BME280;28985;47.456;19.016;2022-09-01T07:50:22;100406.13;;;16.49;85.60
42297;BME280;28985;47.456;19.016;2022-09-01T07:53:10;100405.97;;;16.50;84.95
42297;BME280;28985;47.456;19.016;2022-09-01T07:55:39;100399.84;;;16.48;83.47
42297;BME280;28985;47.456;19.016;2022-09-01T07:58:09;100402.16;;;16.60;86.92
42297;BME280;28985;47.456;19.016;2022-09-01T08:00:35;100404.19;;;16.66;86.42
42297;BME280;28985;47.456;19.016;2022-09-01T08:03:03;100398.88;;;16.73;87.59
42297;BME280;28985;47.456;19.016;2022-09-01T08:05:30;100401.94;;;16.78;85.11
42297;BME280;28985;47.456;19.016;2022-09-01T08:07:57;100393.22;;;16.83;85.89
42297;BME280;28985;47.456;19.016;2022-09-01T08:10:24;100392.03;;;16.85;86.49
42297;BME280;28985;47.456;19.016;2022-09-01T08:12:50;100394.03;;;16.91;86.25
42297;BME280;28985;47.456;19.016;2022-09-01T08:15:24;100400.31;;;16.92;85.16
42297;BME280;28985;47.456;19.016;2022-09-01T08:18:12;100398.09;;;16.96;85.16
42297;BME280;28985;47.456;19.016;2022-09-01T08:20:42;100403.16;;;16.99;82.75
42297;BME280;28985;47.456;19.016;2022-09-01T08:23:15;100404.66;;;17.01;81.97
42297;BME280;28985;47.456;19.016;2022-09-01T08:25:47;100407.94;;;16.97;79.44
42297;BME280;28985;47.456;19.016;2022-09-01T08:28:14;100413.16;;;17.07;80.54
42297;BME280;28985;47.456;19.016;2022-09-01T08:30:43;100409.94;;;17.11;81.68
42297;BME280;28985;47.456;19.016;2022-09-01T08:33:18;100409.22;;;17.17;84.72
42297;BME280;28985;47.456;19.016;2022-09-01T08:35:47;100412.91;;;17.25;84.21
42297;BME280;28985;47.456;19.016;2022-09-01T08:38:14;100404.00;;;17.31;84.47
42297;BME280;28985;47.456;19.016;2022-09-01T08:40:42;100406.00;;;17.37;85.28
42297;BME280;28985;47.456;19.016;2022-09-01T08:43:36;100404.06;;;17.46;84.30
42297;BME280;28985;47.456;19.016;2022-09-01T08:46:27;100409.63;;;17.53;81.01
42297;BME280;28985;47.456;19.016;2022-09-01T08:48:58;100417.41;;;17.56;81.09
42297;BME280;28985;47.456;19.016;2022-09-01T08:51:51;100417.00;;;17.67;82.48
42297;BME280;28985;47.456;19.016;2022-09-01T08:54:27;100413.34;;;17.75;80.89
42297;BME280;28985;47.456;19.016;2022-09-01T08:57:05;100409.16;;;17.88;80.46
42297;BME280;28985;47.456;19.016;2022-09-01T08:59:32;100404.47;;;17.96;77.23
42297;BME280;28985;47.456;19.016;2022-09-01T09:07:26;100411.38;;;18.22;75.61
42297;BME280;28985;47.456;19.016;2022-09-01T09:10:11;100411.56;;;18.36;74.79
42297;BME280;28985;47.456;19.016;2022-09-01T09:13:01;100413.38;;;18.44;72.69
42297;BME280;28985;47.456;19.016;2022-09-01T09:15:42;100403.38;;;18.51;71.56
42297;BME280;28985;47.456;19.016;2022-09-01T09:18:39;100406.91;;;18.67;72.15
42297;BME280;28985;47.456;19.016;2022-09-01T09:21:26;100408.25;;;18.71;71.53
42297;BME280;28985;47.456;19.016;2022-09-01T09:24:26;100403.72;;;18.78;71.83
42297;BME280;28985;47.456;19.016;2022-09-01T09:27:05;100403.34;;;18.81;71.62
42297;BME280;28985;47.456;19.016;2022-09-01T09:29:35;100399.47;;;18.75;66.30
42297;BME280;28985;47.456;19.016;2022-09-01T09:32:07;100392.88;;;18.85;70.16
42297;BME280;28985;47.456;19.016;2022-09-01T09:34:54;100391.75;;;18.94;69.82
42297;BME280;28985;47.456;19.016;2022-09-01T09:37:28;100389.78;;;19.03;72.97
42297;BME280;28985;47.456;19.016;2022-09-01T09:40:13;100386.91;;;19.11;67.39
42297;BME280;28985;47.456;19.016;2022-09-01T09:45:30;100380.44;;;19.34;69.35
42297;BME280;28985;47.456;19.016;2022-09-01T09:48:02;100376.91;;;19.40;68.30
42297;BME280;28985;47.456;19.016;2022-09-01T09:50:35;100365.19;;;19.47;69.13
42297;BME280;28985;47.456;19.016;2022-09-01T09:58:38;100369.09;;;19.59;67.27
42297;BME280;28985;47.456;19.016;2022-09-01T10:01:28;100356.50;;;19.65;63.32
42297;BME280;28985;47.456;19.016;2022-09-01T10:03:58;100369.44;;;19.78;65.44
42297;BME280;28985;47.456;19.016;2022-09-01T10:08:56;100360.59;;;19.97;64.03
42297;BME280;28985;47.456;19.016;2022-09-01T10:17:08;100366.66;;;20.35;61.87
42297;BME280;28985;47.456;19.016;2022-09-01T10:19:36;100367.78;;;20.47;60.88
42297;BME280;28985;47.456;19.016;2022-09-01T10:22:08;100361.28;;;20.55;61.06
42297;BME280;28985;47.456;19.016;2022-09-01T10:24:37;100360.91;;;20.65;60.75
42297;BME280;28985;47.456;19.016;2022-09-01T10:27:37;100360.72;;;20.66;58.18
42297;BME280;28985;47.456;19.016;2022-09-01T10:30:12;100360.94;;;20.78;62.16
42297;BME280;28985;47.456;19.016;2022-09-01T10:32:45;100359.13;;;20.92;60.05
42297;BME280;28985;47.456;19.016;2022-09-01T10:35:21;100360.63;;;21.09;58.88
42297;BME280;28985;47.456;19.016;2022-09-01T10:37:49;100346.75;;;21.24;56.42
42297;BME280;28985;47.456;19.016;2022-09-01T10:42:59;100346.31;;;21.60;53.92
42297;BME280;28985;47.456;19.016;2022-09-01T10:45:44;100338.53;;;21.84;54.34
42297;BME280;28985;47.456;19.016;2022-09-01T10:53:44;100342.66;;;22.21;47.99
42297;BME280;28985;47.456;19.016;2022-09-01T11:10:32;100338.53;;;23.28;46.92
42297;BME280;28985;47.456;19.016;2022-09-01T11:15:38;100343.03;;;23.48;45.71
42297;BME280;28985;47.456;19.016;2022-09-01T11:18:15;100332.34;;;23.65;46.64
42297;BME280;28985;47.456;19.016;2022-09-01T11:20:45;100328.16;;;23.81;45.13
42297;BME280;28985;47.456;19.016;2022-09-01T11:23:28;100321.69;;;23.94;45.48
42297;BME280;28985;47.456;19.016;2022-09-01T11:28:57;100328.88;;;24.33;42.89
42297;BME280;28985;47.456;19.016;2022-09-01T11:31:28;100324.44;;;24.50;43.68
42297;BME280;28985;47.456;19.016;2022-09-01T11:34:14;100320.25;;;24.78;43.42
42297;BME280;28985;47.456;19.016;2022-09-01T11:37:11;100324.75;;;24.91;40.95
42297;BME280;28985;47.456;19.016;2022-09-01T11:39:41;100323.75;;;25.16;42.26
42297;BME280;28985;47.456;19.016;2022-09-01T11:47:12;100314.94;;;25.74;41.67
42297;BME280;28985;47.456;19.016;2022-09-01T11:49:52;100316.13;;;26.02;38.70
42297;BME280;28985;47.456;19.016;2022-09-01T11:52:21;100310.56;;;26.14;36.93
42297;BME280;28985;47.456;19.016;2022-09-01T11:54:48;100313.06;;;26.16;39.04
42297;BME280;28985;47.456;19.016;2022-09-01T11:57:18;100312.16;;;26.10;38.79
42297;BME280;28985;47.456;19.016;2022-09-01T11:59:45;100313.19;;;26.21;38.64
42297;BME280;28985;47.456;19.016;2022-09-01T12:02:24;100311.78;;;26.06;36.62
42297;BME280;28985;47.456;19.016;2022-09-01T12:04:55;100312.38;;;26.08;36.02
42297;BME280;28985;47.456;19.016;2022-09-01T12:10:34;100318.31;;;26.41;37.25
42297;BME280;28985;47.456;19.016;2022-09-01T12:15:32;100296.78;;;26.84;36.70
42297;BME280;28985;47.456;19.016;2022-09-01T12:18:14;100295.56;;;27.26;36.78
42297;BME280;28985;47.456;19.016;2022-09-01T12:20:46;100295.81;;;27.59;36.52
42297;BME280;28985;47.456;19.016;2022-09-01T12:23:22;100292.66;;;27.90;34.66
42297;BME280;28985;47.456;19.016;2022-09-01T12:25:55;100287.72;;;28.14;31.09
42297;BME280;28985;47.456;19.016;2022-09-01T12:28:24;100298.81;;;28.36;32.39
42297;BME280;28985;47.456;19.016;2022-09-01T12:30:58;100296.59;;;28.61;32.14
42297;BME280;28985;47.456;19.016;2022-09-01T12:33:25;100300.03;;;28.73;32.25
42297;BME280;28985;47.456;19.016;2022-09-01T12:36:13;100296.63;;;28.66;31.77
42297;BME280;28985;47.456;19.016;2022-09-01T12:38:41;100291.69;;;28.96;31.41
42297;BME280;28985;47.456;19.016;2022-09-01T12:41:31;100300.38;;;29.42;30.72
42297;BME280;28985;47.456;19.016;2022-09-01T12:44:29;100293.97;;;29.80;28.96
42297;BME280;28985;47.456;19.016;2022-09-01T12:46:58;100281.19;;;30.32;29.23
42297;BME280;28985;47.456;19.016;2022-09-01T12:54:40;100291.34;;;31.06;28.74
42297;BME280;28985;47.456;19.016;2022-09-01T12:57:07;100281.84;;;30.71;27.17
42297;BME280;28985;47.456;19.016;2022-09-01T12:59:34;100286.59;;;30.70;26.22
42297;BME280;28985;47.456;19.016;2022-09-01T13:02:25;100292.34;;;30.48;27.63
42297;BME280;28985;47.456;19.016;2022-09-01T13:04:52;100286.81;;;30.63;27.61
42297;BME280;28985;47.456;19.016;2022-09-01T13:07:19;100284.88;;;30.53;27.63
42297;BME280;28985;47.456;19.016;2022-09-01T13:09:46;100275.44;;;30.60;27.11
42297;BME280;28985;47.456;19.016;2022-09-01T13:12:18;100283.28;;;30.89;26.50
42297;BME280;28985;47.456;19.016;2022-09-01T13:14:45;100278.81;;;30.98;25.98
42297;BME280;28985;47.456;19.016;2022-09-01T13:17:12;100281.03;;;31.22;27.77
42297;BME280;28985;47.456;19.016;2022-09-01T13:19:40;100284.41;;;31.24;27.03
42297;BME280;28985;47.456;19.016;2022-09-01T13:22:07;100284.66;;;31.48;26.10
42297;BME280;28985;47.456;19.016;2022-09-01T13:24:34;100282.44;;;31.45;26.72
42297;BME280;28985;47.456;19.016;2022-09-01T13:27:00;100273.16;;;31.92;25.91
42297;BME280;28985;47.456;19.016;2022-09-01T13:29:47;100271.13;;;32.08;26.21
42297;BME280;28985;47.456;19.016;2022-09-01T13:32:15;100272.75;;;32.19;25.40
42297;BME280;28985;47.456;19.016;2022-09-01T13:34:46;100268.78;;;32.36;24.32
42297;BME280;28985;47.456;19.016;2022-09-01T13:37:12;100277.56;;;32.64;23.98
42297;BME280;28985;47.456;19.016;2022-09-01T13:39:39;100283.63;;;32.71;24.08
42297;BME280;28985;47.456;19.016;2022-09-01T13:42:05;100286.63;;;32.80;23.98
42297;BME280;28985;47.456;19.016;2022-09-01T13:44:33;100282.94;;;32.90;23.64
42297;BME280;28985;47.456;19.016;2022-09-01T13:47:01;100284.97;;;32.79;23.58
42297;BME280;28985;47.456;19.016;2022-09-01T13:49:47;100279.31;;;32.49;23.43
42297;BME280;28985;47.456;19.016;2022-09-01T13:52:34;100274.13;;;32.22;22.86
42297;BME280;28985;47.456;19.016;2022-09-01T13:55:01;100280.06;;;32.05;23.26
42297;BME280;28985;47.456;19.016;2022-09-01T13:57:27;100284.47;;;32.16;24.45
42297;BME280;28985;47.456;19.016;2022-09-01T14:00:06;100282.38;;;31.77;24.33
42297;BME280;28985;47.456;19.016;2022-09-01T14:02:40;100289.31;;;31.90;23.81
42297;BME280;28985;47.456;19.016;2022-09-01T14:05:08;100292.69;;;31.71;24.05
42297;BME280;28985;47.456;19.016;2022-09-01T14:07:35;100291.56;;;31.77;23.75
42297;BME280;28985;47.456;19.016;2022-09-01T14:10:03;100291.84;;;31.91;25.74
42297;BME280;28985;47.456;19.016;2022-09-01T14:12:30;100283.19;;;31.82;23.96
42297;BME280;28985;47.456;19.016;2022-09-01T14:14:57;100284.09;;;31.57;22.08
42297;BME280;28985;47.456;19.016;2022-09-01T14:17:44;100286.00;;;31.77;23.78
42297;BME280;28985;47.456;19.016;2022-09-01T14:20:16;100291.06;;;31.59;23.42